Time;durP1;ratioP1;P1;durP2;ratioP2;P2;SDS_P1;SDS_P2;PMS_P1;PMS_P2;Temp;Humidity;BMP_temperature;BMP_pressure;BME280_temperature;BME280_humidity;BME280_pressure;Samples;Min_cycle;Max_cycle;Signal;HPM_P1;HPM_P2
2023/06/14 00:00:20;;;;;;;7.47;3.47;;;9.70;99.90;;;;;;5118830;28;20047;-72
2023/06/14 00:02:46;;;;;;;3.28;2.90;;;9.60;99.90;;;;;;5117892;28;20092;-71
2023/06/14 00:05:12;;;;;;;8.52;3.42;;;9.60;99.90;;;;;;5136332;28;20038;-72
2023/06/14 00:07:43;;;;;;;3.92;3.42;;;9.60;99.90;;;;;;5136023;28;20107;-72
2023/06/14 00:10:11;;;;;;;4.93;3.60;;;9.50;99.90;;;;;;5118083;28;20463;-72
2023/06/14 00:12:38;;;;;;;5.80;3.72;;;9.50;99.90;;;;;;5118328;28;20027;-72
2023/06/14 00:15:04;;;;;;;6.20;3.53;;;9.50;99.90;;;;;;5137029;28;20090;-72
2023/06/14 00:17:30;;;;;;;8.02;3.90;;;9.50;99.90;;;;;;5136163;28;20019;-71
2023/06/14 00:19:57;;;;;;;11.50;3.83;;;9.50;99.90;;;;;;5117434;28;20051;-71
2023/06/14 00:22:24;;;;;;;5.90;3.33;;;9.50;99.90;;;;;;5118125;28;20035;-71
2023/06/14 00:24:50;;;;;;;8.18;3.38;;;9.50;99.90;;;;;;5136347;28;20027;-71
2023/06/14 00:27:16;;;;;;;6.45;3.97;;;9.50;99.90;;;;;;5136326;28;20023;-71
2023/06/14 00:29:42;;;;;;;8.40;3.60;;;9.50;99.90;;;;;;5117336;28;20046;-71
2023/06/14 00:32:08;;;;;;;5.32;3.28;;;9.50;99.90;;;;;;5135505;28;20028;-72
2023/06/14 00:34:33;;;;;;;7.47;3.63;;;9.50;99.90;;;;;;5136076;28;20117;-71
2023/06/14 00:37:00;;;;;;;5.60;3.63;;;9.50;99.90;;;;;;5136390;28;20031;-71
2023/06/14 00:39:25;;;;;;;7.22;3.83;;;9.50;99.90;;;;;;5135841;28;20036;-71
2023/06/14 00:41:51;;;;;;;5.00;3.70;;;9.50;99.90;;;;;;5117708;28;20477;-71
2023/06/14 00:44:17;;;;;;;7.63;3.25;;;9.50;99.90;;;;;;5136140;28;20092;-71
2023/06/14 00:46:45;;;;;;;4.22;3.40;;;9.50;99.90;;;;;;5118314;28;20042;-71
2023/06/14 00:49:12;;;;;;;10.80;4.18;;;9.50;99.90;;;;;;5136245;28;20032;-72
2023/06/14 00:51:39;;;;;;;6.45;3.40;;;9.50;99.90;;;;;;5136150;28;20035;-71
2023/06/14 00:54:04;;;;;;;3.85;3.42;;;9.50;99.90;;;;;;5118088;28;20042;-72
2023/06/14 00:56:30;;;;;;;7.25;3.80;;;9.40;99.90;;;;;;5136820;28;20043;-72
2023/06/14 00:58:56;;;;;;;5.38;3.70;;;9.40;99.90;;;;;;5139111;27;20030;-73
2023/06/14 01:01:22;;;;;;;4.13;3.35;;;9.40;99.90;;;;;;5140326;27;20050;-71
2023/06/14 01:03:47;;;;;;;4.82;3.35;;;9.40;99.90;;;;;;5139777;27;20068;-71
2023/06/14 01:06:26;;;;;;;6.30;3.83;;;9.40;99.90;;;;;;5139647;27;20031;-71
2023/06/14 01:09:00;;;;;;;7.15;4.20;;;9.30;99.90;;;;;;5122010;27;20062;-72
2023/06/14 01:11:32;;;;;;;5.78;3.65;;;9.40;99.90;;;;;;5140358;27;20083;-71
2023/06/14 01:14:02;;;;;;;4.60;3.30;;;9.30;99.90;;;;;;5140437;27;20042;-71
2023/06/14 01:16:29;;;;;;;6.25;3.78;;;9.40;99.90;;;;;;5122439;27;20035;-72
2023/06/14 01:18:56;;;;;;;4.40;3.13;;;9.40;99.90;;;;;;5139863;27;20027;-71
2023/06/14 01:21:28;;;;;;;6.25;3.38;;;9.40;99.90;;;;;;5121910;27;20397;-71
2023/06/14 01:23:54;;;;;;;5.10;3.35;;;9.50;99.90;;;;;;5140212;27;20498;-71
2023/06/14 01:26:21;;;;;;;3.78;3.33;;;9.50;99.90;;;;;;5139751;27;20384;-72
2023/06/14 01:28:48;;;;;;;5.15;3.47;;;9.50;99.90;;;;;;5139304;27;20030;-71
2023/06/14 01:31:19;;;;;;;3.58;3.20;;;9.50;99.90;;;;;;5121270;27;20035;-71
2023/06/14 01:33:46;;;;;;;6.82;3.40;;;9.60;99.90;;;;;;5121915;27;20059;-71
2023/06/14 01:36:13;;;;;;;5.43;3.70;;;9.60;99.90;;;;;;5140381;27;20376;-72
2023/06/14 01:38:40;;;;;;;4.32;3.72;;;9.60;99.90;;;;;;5140156;27;20134;-71
2023/06/14 01:41:06;;;;;;;4.82;4.05;;;9.60;99.90;;;;;;5140057;27;20042;-72
2023/06/14 01:43:34;;;;;;;7.93;3.70;;;9.60;99.90;;;;;;5140257;27;20426;-71
2023/06/14 01:46:00;;;;;;;6.37;3.70;;;9.60;99.90;;;;;;5139751;27;20514;-71
2023/06/14 01:48:26;;;;;;;4.28;3.50;;;9.60;99.90;;;;;;5139107;27;20268;-72
2023/06/14 01:50:52;;;;;;;4.97;3.33;;;9.60;99.90;;;;;;5139553;27;20047;-71
2023/06/14 01:53:18;;;;;;;5.72;3.90;;;9.70;99.90;;;;;;5120691;27;20039;-71
2023/06/14 01:55:44;;;;;;;7.93;4.07;;;9.70;99.90;;;;;;5138985;27;20085;-71
2023/06/14 01:58:11;;;;;;;5.00;3.78;;;9.70;99.90;;;;;;5139076;27;20080;-71
2023/06/14 02:00:36;;;;;;;5.10;3.85;;;9.70;99.90;;;;;;5138262;27;20066;-72
2023/06/14 02:03:05;;;;;;;4.40;3.55;;;9.80;99.90;;;;;;5138724;27;20085;-71
2023/06/14 02:05:30;;;;;;;4.97;3.30;;;9.80;99.90;;;;;;5120345;27;20035;-72
2023/06/14 02:07:56;;;;;;;7.95;3.67;;;9.80;99.90;;;;;;5119150;27;20438;-72
2023/06/14 02:10:22;;;;;;;6.45;3.67;;;9.80;99.90;;;;;;5137141;27;20035;-72
2023/06/14 02:12:48;;;;;;;4.20;3.75;;;9.80;99.90;;;;;;5119353;27;20035;-71
2023/06/14 02:15:16;;;;;;;5.85;3.17;;;9.80;99.90;;;;;;5138606;27;20388;-72
2023/06/14 02:17:43;;;;;;;5.90;3.83;;;9.80;99.90;;;;;;5138720;27;20053;-71
2023/06/14 02:20:09;;;;;;;5.13;3.65;;;9.70;99.90;;;;;;5138365;27;20046;-72
2023/06/14 02:22:35;;;;;;;4.93;3.45;;;9.80;99.90;;;;;;5120749;27;20032;-72
2023/06/14 02:25:00;;;;;;;5.78;4.35;;;9.80;99.90;;;;;;5139142;27;20035;-72
2023/06/14 02:27:26;;;;;;;4.32;3.50;;;9.80;99.90;;;;;;5139286;27;20479;-72
2023/06/14 02:29:52;;;;;;;3.20;2.95;;;9.80;99.90;;;;;;5138307;27;20472;-72
2023/06/14 02:32:17;;;;;;;6.22;3.83;;;9.80;99.90;;;;;;5138443;27;20092;-72
2023/06/14 02:34:43;;;;;;;4.07;3.40;;;9.80;99.90;;;;;;5137888;27;20039;-72
2023/06/14 02:37:09;;;;;;;5.68;3.90;;;9.70;99.90;;;;;;5137700;27;20043;-72
2023/06/14 02:39:35;;;;;;;9.25;4.30;;;9.70;99.90;;;;;;5119561;27;20051;-72
2023/06/14 02:42:00;;;;;;;4.65;3.58;;;9.70;99.90;;;;;;5138574;27;20054;-72
2023/06/14 02:44:27;;;;;;;6.57;3.63;;;9.70;99.90;;;;;;5138238;27;20460;-72
2023/06/14 02:46:56;;;;;;;5.75;3.67;;;9.80;99.90;;;;;;5138026;27;20050;-72
2023/06/14 02:49:22;;;;;;;5.68;3.70;;;9.70;99.90;;;;;;5137644;27;20027;-72
2023/06/14 02:51:48;;;;;;;6.47;3.70;;;9.70;99.90;;;;;;5119298;27;20453;-72
2023/06/14 02:54:13;;;;;;;8.63;3.70;;;9.70;99.90;;;;;;5119379;27;20042;-72
2023/06/14 02:56:39;;;;;;;5.30;3.67;;;9.70;99.90;;;;;;5138043;27;20150;-72
2023/06/14 02:59:05;;;;;;;6.00;3.83;;;9.70;99.90;;;;;;5137584;27;20019;-72
2023/06/14 03:01:40;;;;;;;8.35;4.50;;;9.70;99.90;;;;;;5138442;27;20031;-72
2023/06/14 03:04:07;;;;;;;4.50;3.67;;;9.70;99.90;;;;;;5137575;27;20024;-72
2023/06/14 03:06:33;;;;;;;10.95;4.03;;;9.70;99.90;;;;;;5136247;27;20033;-72
2023/06/14 03:09:00;;;;;;;5.18;3.80;;;9.70;99.90;;;;;;5136751;27;20085;-71
2023/06/14 03:11:26;;;;;;;5.63;4.10;;;9.80;99.90;;;;;;5136458;27;20027;-72
2023/06/14 03:13:53;;;;;;;9.48;4.03;;;9.80;99.90;;;;;;5137438;27;20039;-72
2023/06/14 03:16:21;;;;;;;7.20;3.90;;;9.80;99.90;;;;;;5137299;27;20069;-72
2023/06/14 03:18:48;;;;;;;6.72;4.20;;;9.80;99.90;;;;;;5136516;27;20023;-72
2023/06/14 03:21:15;;;;;;;4.38;3.30;;;9.70;99.90;;;;;;5135682;27;20487;-71
2023/06/14 03:23:41;;;;;;;6.03;4.00;;;9.70;99.90;;;;;;5136278;27;20113;-72
2023/06/14 03:26:07;;;;;;;8.48;4.30;;;9.70;99.90;;;;;;5136285;27;20034;-72
2023/06/14 03:28:33;;;;;;;9.18;4.22;;;9.70;99.90;;;;;;5117907;27;20073;-71
2023/06/14 03:30:59;;;;;;;6.43;3.40;;;9.60;99.90;;;;;;5117829;27;20430;-72
2023/06/14 03:33:25;;;;;;;8.23;3.97;;;9.60;99.90;;;;;;5136286;27;20027;-71
2023/06/14 03:35:51;;;;;;;5.95;4.05;;;9.60;99.90;;;;;;5136487;27;20030;-71
2023/06/14 03:38:17;;;;;;;6.28;4.03;;;9.60;99.90;;;;;;5136263;27;20464;-72
2023/06/14 03:40:44;;;;;;;6.45;4.13;;;9.60;99.90;;;;;;5135686;27;20050;-71
2023/06/14 03:43:10;;;;;;;5.65;3.85;;;9.70;99.90;;;;;;5117675;27;20032;-72
2023/06/14 03:45:35;;;;;;;11.30;4.30;;;9.70;99.90;;;;;;5118200;27;20041;-72
2023/06/14 03:48:02;;;;;;;7.22;4.30;;;9.70;99.90;;;;;;5136078;27;20030;-71
2023/06/14 03:50:28;;;;;;;7.95;5.03;;;9.70;99.90;;;;;;5135931;27;20493;-71
2023/06/14 03:52:54;;;;;;;8.07;4.32;;;9.70;99.90;;;;;;5135592;27;20054;-72
2023/06/14 03:55:19;;;;;;;4.90;3.90;;;9.70;99.90;;;;;;5135386;27;20142;-72
2023/06/14 03:57:45;;;;;;;6.07;3.90;;;9.70;99.90;;;;;;5135559;28;20061;-71
2023/06/14 04:00:12;;;;;;;7.78;4.55;;;9.70;99.90;;;;;;5135805;27;20446;-72
2023/06/14 04:02:38;;;;;;;12.10;4.28;;;9.70;99.90;;;;;;5135856;27;20054;-72
2023/06/14 04:05:08;;;;;;;6.43;4.35;;;9.70;99.90;;;;;;5135655;28;20035;-72
2023/06/14 04:07:39;;;;;;;6.85;4.22;;;9.70;99.90;;;;;;5117029;28;20471;-72
2023/06/14 04:10:06;;;;;;;9.68;4.05;;;9.70;99.90;;;;;;5117982;28;20039;-77
2023/06/14 04:12:32;;;;;;;6.00;4.15;;;9.80;99.90;;;;;;5117163;28;20100;-72
2023/06/14 04:14:57;;;;;;;7.75;3.88;;;9.80;99.90;;;;;;5135489;28;20031;-71
2023/06/14 04:17:23;;;;;;;8.45;4.38;;;9.80;99.90;;;;;;5135493;28;20036;-71
2023/06/14 04:19:49;;;;;;;6.60;4.82;;;9.90;99.90;;;;;;5134636;28;20046;-71
2023/06/14 04:22:14;;;;;;;8.98;4.70;;;10.00;99.90;;;;;;5116410;28;20468;-70
2023/06/14 04:24:42;;;;;;;9.52;5.18;;;10.10;99.90;;;;;;5134686;28;20031;-70
2023/06/14 04:27:07;;;;;;;10.63;4.65;;;10.20;99.90;;;;;;5134754;28;20062;-71
2023/06/14 04:29:33;;;;;;;8.38;4.53;;;10.30;99.90;;;;;;5134575;28;20100;-72
2023/06/14 04:31:59;;;;;;;6.95;4.20;;;10.40;99.90;;;;;;5134864;28;20038;-71
2023/06/14 04:34:33;;;;;;;7.80;3.97;;;10.60;99.90;;;;;;5137661;27;20027;-71
2023/06/14 04:37:00;;;;;;;7.13;4.10;;;10.70;99.90;;;;;;5120313;27;20036;-70
2023/06/14 04:39:27;;;;;;;6.47;4.22;;;10.80;99.90;;;;;;5138235;27;20033;-71
2023/06/14 04:41:56;;;;;;;5.78;3.80;;;10.90;99.90;;;;;;5119641;27;20039;-71
2023/06/14 04:44:29;;;;;;;;;;;11.00;99.90;;;;;;5138633;27;20031;-73
2023/06/14 04:46:58;;;;;;;9.23;4.22;;;11.00;99.90;;;;;;5138428;27;19957;-72
2023/06/14 04:49:24;;;;;;;6.47;3.65;;;11.20;99.90;;;;;;5138228;27;20038;-71
2023/06/14 04:51:57;;;;;;;4.35;3.53;;;11.30;99.90;;;;;;5138095;27;20059;-72
2023/06/14 04:54:25;;;;;;;8.35;4.10;;;11.40;99.90;;;;;;5138152;27;20028;-74
2023/06/14 04:56:51;;;;;;;6.60;3.53;;;11.50;99.90;;;;;;5120005;27;20031;-73
2023/06/14 04:59:17;;;;;;;5.47;4.13;;;11.50;99.90;;;;;;5119429;27;20059;-71
2023/06/14 05:01:47;;;;;;;6.28;4.03;;;11.70;99.90;;;;;;5119216;27;20072;-70
2023/06/14 05:04:15;;;;;;;6.97;3.63;;;11.70;99.90;;;;;;5119989;27;20035;-71
2023/06/14 05:06:49;;;;;;;5.95;4.00;;;11.80;99.90;;;;;;5137702;27;20031;-70
2023/06/14 05:09:16;;;;;;;5.85;3.90;;;12.00;99.90;;;;;;5137695;27;20042;-73
2023/06/14 05:11:43;;;;;;;7.35;4.00;;;12.10;99.90;;;;;;5137563;27;20035;-72
2023/06/14 05:14:10;;;;;;;4.47;3.38;;;12.20;99.90;;;;;;5137651;27;20028;-71
2023/06/14 05:16:36;;;;;;;5.10;3.67;;;;;;;;;;5137507;27;20034;-72
2023/06/14 05:19:04;;;;;;;11.35;5.10;;;12.60;99.90;;;;;;5137240;27;20101;-72
2023/06/14 05:21:30;;;;;;;5.75;3.33;;;12.80;99.90;;;;;;5137677;27;20039;-72
2023/06/14 05:23:56;;;;;;;5.15;3.60;;;13.00;99.90;;;;;;5137965;27;20457;-72
2023/06/14 05:26:23;;;;;;;7.45;3.30;;;13.10;99.90;;;;;;5137556;27;20031;-72
2023/06/14 05:28:50;;;;;;;7.53;4.63;;;13.30;99.90;;;;;;5118932;27;20496;-72
2023/06/14 05:31:15;;;;;;;4.80;3.42;;;13.50;99.90;;;;;;5137304;27;20031;-72
2023/06/14 05:33:41;;;;;;;5.57;3.75;;;13.70;99.90;;;;;;5137110;27;20088;-72
2023/06/14 05:36:07;;;;;;;8.85;3.80;;;13.90;99.90;;;;;;5119083;27;20042;-72
2023/06/14 05:38:32;;;;;;;6.45;3.42;;;14.10;99.90;;;;;;5118787;27;20031;-72
2023/06/14 05:40:59;;;;;;;5.03;3.45;;;14.30;99.90;;;;;;5136789;27;20039;-72
2023/06/14 05:43:25;;;;;;;7.80;3.05;;;14.60;99.90;;;;;;5137022;27;20038;-73
2023/06/14 05:45:50;;;;;;;7.15;2.70;;;14.80;99.90;;;;;;5128255;27;20039;-67
2023/06/14 05:48:16;;;;;;;4.50;2.85;;;15.00;99.90;;;;;;5128882;27;20038;-67
2023/06/14 05:50:41;;;;;;;4.43;2.60;;;15.20;99.90;;;;;;5134348;27;20095;-67
2023/06/14 05:53:07;;;;;;;6.07;3.17;;;15.50;99.90;;;;;;5135707;27;20461;-67
2023/06/14 05:55:33;;;;;;;3.13;2.80;;;15.80;99.90;;;;;;5134696;27;20030;-68
2023/06/14 05:57:59;;;;;;;4.38;2.72;;;16.00;99.90;;;;;;5133321;27;20043;-67
2023/06/14 06:00:24;;;;;;;3.40;2.60;;;16.30;99.90;;;;;;5136472;27;20126;-67
2023/06/14 06:02:50;;;;;;;5.18;2.78;;;16.70;99.90;;;;;;5114695;27;20158;-68
2023/06/14 06:05:16;;;;;;;4.63;2.60;;;16.90;99.90;;;;;;5117991;27;20071;-67
2023/06/14 06:07:44;;;;;;;3.88;2.53;;;17.10;99.90;;;;;;5136455;27;20031;-67
2023/06/14 06:10:10;;;;;;;6.05;2.85;;;17.20;99.90;;;;;;5136653;27;20035;-67
2023/06/14 06:12:35;;;;;;;4.95;3.10;;;17.30;99.90;;;;;;5111680;28;20035;-67
2023/06/14 06:15:01;;;;;;;3.70;2.90;;;17.40;99.90;;;;;;5129297;27;20039;-67
2023/06/14 06:17:27;;;;;;;4.97;2.80;;;17.60;99.90;;;;;;5127788;27;20171;-75
2023/06/14 06:19:52;;;;;;;4.32;2.50;;;17.90;99.90;;;;;;5124960;27;20135;-72
2023/06/14 06:22:18;;;;;;;7.50;2.80;;;18.30;99.90;;;;;;5136538;27;20039;-72
2023/06/14 06:24:44;;;;;;;6.63;2.53;;;18.70;99.40;;;;;;5134930;27;20035;-70
2023/06/14 06:27:10;;;;;;;9.10;3.25;;;19.20;98.10;;;;;;5116335;27;20133;-72
2023/06/14 06:29:36;;;;;;;6.75;3.00;;;19.20;96.80;;;;;;5120960;27;20042;-70
2023/06/14 06:32:01;;;;;;;3.15;2.40;;;19.50;97.00;;;;;;5117544;27;20031;-71
2023/06/14 06:34:28;;;;;;;3.97;2.75;;;19.80;96.10;;;;;;5135822;27;20027;-71
2023/06/14 06:36:53;;;;;;;5.38;2.80;;;20.20;94.00;;;;;;5106877;27;20035;-71
2023/06/14 06:39:19;;;;;;;6.35;2.50;;;20.40;93.40;;;;;;5134945;27;20033;-71
2023/06/14 06:41:45;;;;;;;6.60;2.50;;;20.60;91.80;;;;;;5116883;27;20031;-71
2023/06/14 06:44:10;;;;;;;4.93;2.50;;;20.90;91.20;;;;;;5134834;27;20043;-71
2023/06/14 06:46:40;;;;;;;4.38;2.35;;;21.10;89.50;;;;;;5136482;27;20039;-71
2023/06/14 06:49:07;;;;;;;5.63;2.65;;;21.30;86.80;;;;;;5135578;27;20453;-71
2023/06/14 06:51:32;;;;;;;4.47;2.20;;;21.30;82.80;;;;;;5134197;27;20434;-71
2023/06/14 06:53:58;;;;;;;5.32;2.65;;;20.90;82.10;;;;;;5103174;28;20042;-71
2023/06/14 06:56:24;;;;;;;5.35;2.45;;;20.90;82.50;;;;;;5096411;28;20085;-71
2023/06/14 06:58:50;;;;;;;4.28;2.55;;;21.00;84.30;;;;;;5120270;27;20114;-71
2023/06/14 07:01:16;;;;;;;5.78;2.22;;;21.30;83.00;;;;;;5134406;27;20046;-71
2023/06/14 07:03:42;;;;;;;3.80;2.67;;;21.70;79.80;;;;;;5135361;27;20064;-71
2023/06/14 07:06:08;;;;;;;4.78;2.40;;;21.80;79.00;;;;;;5123401;27;20024;-71
2023/06/14 07:08:34;;;;;;;2.97;2.22;;;22.00;78.00;;;;;;5114801;28;20097;-71
2023/06/14 07:11:00;;;;;;;12.65;3.47;;;22.10;76.90;;;;;;5114928;28;20181;-71
2023/06/14 07:13:25;;;;;;;4.82;2.58;;;22.30;75.40;;;;;;5117319;27;20100;-70
2023/06/14 07:15:55;;;;;;;3.28;2.28;;;22.30;72.00;;;;;;5134992;27;20031;-71
2023/06/14 07:18:20;;;;;;;6.13;2.10;;;22.20;72.90;;;;;;5115537;27;20130;-71
2023/06/14 07:20:47;;;;;;;4.32;2.88;;;22.30;71.20;;;;;;5096890;28;20166;-71
2023/06/14 07:23:13;;;;;;;6.82;2.90;;;22.50;71.00;;;;;;5114298;28;20469;-71
2023/06/14 07:25:38;;;;;;;4.75;2.15;;;22.70;70.00;;;;;;5124833;27;20042;-71
2023/06/14 07:28:04;;;;;;;4.70;2.30;;;22.60;69.30;;;;;;5134629;27;20492;-71
2023/06/14 07:30:33;;;;;;;6.07;2.85;;;22.40;70.70;;;;;;5133994;27;20039;-71
2023/06/14 07:32:58;;;;;;;3.53;2.45;;;21.90;70.30;;;;;;5134520;27;20027;-71
2023/06/14 07:35:24;;;;;;;3.42;2.25;;;21.90;71.60;;;;;;5133206;27;20118;-71
2023/06/14 07:37:50;;;;;;;10.52;2.50;;;21.70;69.90;;;;;;5134856;27;20110;-71
2023/06/14 07:40:15;;;;;;;3.83;2.30;;;21.70;71.00;;;;;;5133277;27;20483;-71
2023/06/14 07:42:42;;;;;;;6.38;2.95;;;21.40;72.20;;;;;;5118740;27;20548;-70
2023/06/14 07:45:08;;;;;;;5.32;2.33;;;21.20;73.00;;;;;;5124550;27;20058;-71
2023/06/14 07:47:34;;;;;;;6.22;2.65;;;20.90;72.20;;;;;;5134626;27;20053;-70
2023/06/14 07:49:59;;;;;;;7.50;2.45;;;20.70;73.10;;;;;;5118466;27;20454;-71
2023/06/14 07:52:25;;;;;;;6.65;2.65;;;20.70;74.60;;;;;;5115017;27;20125;-71
2023/06/14 07:54:51;;;;;;;9.27;3.22;;;21.20;73.80;;;;;;5135046;27;20114;-70
2023/06/14 07:57:16;;;;;;;6.40;2.65;;;21.80;72.30;;;;;;5132361;27;20063;-71
2023/06/14 07:59:42;;;;;;;3.90;2.20;;;22.20;71.60;;;;;;5130708;27;20130;-71
2023/06/14 08:02:08;;;;;;;3.80;2.00;;;22.70;71.10;;;;;;5133109;27;20031;-71
2023/06/14 08:04:33;;;;;;;8.32;2.40;;;23.20;68.90;;;;;;5134459;27;20024;-71
2023/06/14 08:07:00;;;;;;;9.00;2.30;;;23.80;67.30;;;;;;5116197;27;20035;-71
2023/06/14 08:09:27;;;;;;;6.80;2.20;;;24.40;66.50;;;;;;5140454;27;20034;-71
2023/06/14 08:11:53;;;;;;;7.07;2.65;;;24.40;62.60;;;;;;5140523;27;20039;-71
2023/06/14 08:14:19;;;;;;;3.08;1.88;;;24.80;63.10;;;;;;5138779;27;20114;-71
2023/06/14 08:16:44;;;;;;;3.15;2.20;;;24.60;61.00;;;;;;5121731;27;20036;-71
2023/06/14 08:19:10;;;;;;;4.25;2.42;;;25.00;61.40;;;;;;5128562;27;20043;-71
2023/06/14 08:21:36;;;;;;;3.35;2.53;;;25.00;58.20;;;;;;5102170;28;20057;-71
2023/06/14 08:24:03;;;;;;;6.25;2.50;;;25.10;57.00;;;;;;5120164;27;20070;-77
2023/06/14 08:26:29;;;;;;;3.42;2.40;;;25.30;57.00;;;;;;5134929;27;20043;-71
2023/06/14 08:28:55;;;;;;;2.90;2.53;;;25.50;56.40;;;;;;5121279;27;20455;-71
2023/06/14 08:31:22;;;;;;;5.28;2.63;;;25.80;56.70;;;;;;5122548;27;20046;-71
2023/06/14 08:33:47;;;;;;;6.38;2.38;;;26.20;55.90;;;;;;5140145;27;20050;-70
2023/06/14 08:36:13;;;;;;;2.53;2.00;;;25.50;54.90;;;;;;5141001;27;20444;-71
2023/06/14 08:38:39;;;;;;;4.70;2.28;;;25.50;56.10;;;;;;5140060;27;20023;-72
2023/06/14 08:41:06;;;;;;;6.28;2.20;;;25.70;54.70;;;;;;5140902;27;20039;-71
2023/06/14 08:43:32;;;;;;;3.47;2.33;;;25.80;54.90;;;;;;5139905;27;20031;-71
2023/06/14 08:46:02;;;;;;;4.47;1.90;;;25.80;55.40;;;;;;5126358;27;20039;-68
2023/06/14 08:48:28;;;;;;;5.20;1.90;;;25.20;54.80;;;;;;5140848;27;20057;-69
2023/06/14 08:51:03;;;;;;;4.43;1.85;;;24.50;55.00;;;;;;5120574;27;20046;-70
2023/06/14 08:53:33;;;;;;;3.63;1.80;;;23.80;56.30;;;;;;5126390;27;20372;-70
2023/06/14 08:56:04;;;;;;;7.35;2.17;;;23.90;57.70;;;;;;5121161;27;20036;-70
2023/06/14 08:58:33;;;;;;;3.13;2.45;;;23.60;56.70;;;;;;5140722;27;20522;-70
2023/06/14 09:01:00;;;;;;;;;;;23.60;56.90;;;;;;5141141;27;20035;-70
2023/06/14 09:03:29;;;;;;;3.47;2.28;;;23.90;56.70;;;;;;5141113;27;19949;-70
2023/06/14 09:05:56;;;;;;;7.88;3.38;;;24.20;55.60;;;;;;5139206;27;20042;-71
2023/06/14 09:08:23;;;;;;;3.30;2.42;;;24.20;55.30;;;;;;5120684;27;20110;-70
2023/06/14 09:10:49;;;;;;;6.50;2.75;;;23.90;56.40;;;;;;5120080;28;20093;-70
2023/06/14 09:13:14;;;;;;;3.78;2.10;;;24.20;56.00;;;;;;5136332;27;20031;-70
2023/06/14 09:15:40;;;;;;;5.85;2.63;;;25.10;57.00;;;;;;5122733;27;20345;-71
2023/06/14 09:18:06;;;;;;;3.65;2.22;;;26.00;54.90;;;;;;5122242;27;20056;-70
2023/06/14 09:20:32;;;;;;;2.55;2.28;;;26.00;52.20;;;;;;5137996;27;20031;-70
2023/06/14 09:23:00;;;;;;;4.18;2.33;;;26.20;50.90;;;;;;5118856;27;20031;-69
2023/06/14 09:25:27;;;;;;;2.95;2.22;;;26.40;50.80;;;;;;5137602;27;20151;-71
2023/06/14 09:27:53;;;;;;;5.78;1.80;;;26.70;51.90;;;;;;5108591;28;20096;-70
2023/06/14 09:30:20;;;;;;;5.00;2.00;;;27.00;49.80;;;;;;5135233;27;20118;-72
2023/06/14 09:32:46;;;;;;;3.83;2.10;;;27.10;50.30;;;;;;5137343;27;20062;-72
2023/06/14 09:35:12;;;;;;;6.65;2.08;;;27.60;48.80;;;;;;5115523;27;20067;-72
2023/06/14 09:37:38;;;;;;;4.82;1.90;;;27.60;48.00;;;;;;5116507;28;20384;-73
2023/06/14 09:40:05;;;;;;;4.30;2.05;;;27.70;48.40;;;;;;5125167;27;20028;-72
2023/06/14 09:42:35;;;;;;;1.90;1.80;;;28.10;47.10;;;;;;5136187;27;20465;-72
2023/06/14 09:45:02;;;;;;;2.70;2.30;;;28.00;46.60;;;;;;5117067;27;20039;-72
2023/06/14 09:47:28;;;;;;;4.78;2.20;;;27.80;47.90;;;;;;5124186;27;20035;-72
2023/06/14 09:49:55;;;;;;;9.65;2.33;;;27.80;47.00;;;;;;5130696;27;20472;-71
2023/06/14 09:52:22;;;;;;;4.07;2.08;;;27.60;46.70;;;;;;5137321;27;20063;-72
2023/06/14 09:54:49;;;;;;;6.50;2.60;;;27.50;47.80;;;;;;5135696;27;20043;-72
2023/06/14 09:57:17;;;;;;;7.57;2.58;;;27.30;46.50;;;;;;5136951;27;20432;-72
2023/06/14 09:59:45;;;;;;;3.65;2.38;;;27.50;45.30;;;;;;5117348;27;20502;-72
2023/06/14 10:02:24;;;;;;;4.70;2.63;;;27.80;45.80;;;;;;5135017;27;20040;-74
2023/06/14 10:05:06;;;;;;;5.10;2.75;;;27.30;47.90;;;;;;5131503;27;20495;-72
2023/06/14 10:07:38;;;;;;;5.50;2.28;;;27.00;48.80;;;;;;5136521;27;20088;-72
2023/06/14 10:10:05;;;;;;;5.18;2.15;;;27.40;47.60;;;;;;5134482;27;20042;-72
2023/06/14 10:12:31;;;;;;;5.30;2.45;;;27.70;47.30;;;;;;5135026;27;20540;-72
2023/06/14 10:14:58;;;;;;;1.95;1.85;;;27.00;47.70;;;;;;5135350;27;20119;-72
2023/06/14 10:17:43;;;;;;;4.72;2.33;;;26.20;49.50;;;;;;5135015;27;20027;-72
2023/06/14 10:20:30;;;;;;;5.55;2.13;;;25.90;49.60;;;;;;5110771;27;20043;-72
2023/06/14 10:23:08;;;;;;;3.45;2.10;;;26.50;49.00;;;;;;5135396;27;20104;-72
2023/06/14 10:25:34;;;;;;;7.07;2.60;;;27.00;47.50;;;;;;5122677;27;20051;-71
2023/06/14 10:28:19;;;;;;;4.43;2.03;;;26.80;47.60;;;;;;5135757;27;20412;-72
2023/06/14 10:31:04;;;;;;;5.22;2.50;;;27.20;46.60;;;;;;5135417;27;20054;-72
2023/06/14 10:33:30;;;;;;;5.93;2.28;;;28.10;46.20;;;;;;5135848;27;20334;-72
2023/06/14 10:36:08;;;;;;;5.03;2.40;;;27.90;45.80;;;;;;5136212;27;20464;-73
2023/06/14 10:38:36;;;;;;;;;;;27.30;46.30;;;;;;5136269;27;20038;-72
2023/06/14 10:41:03;;;;;;;3.40;2.20;;;26.10;47.80;;;;;;5117324;27;19911;-73
2023/06/14 10:43:28;;;;;;;2.88;2.20;;;26.10;48.00;;;;;;5117116;27;20361;-72
2023/06/14 10:46:17;;;;;;;5.03;2.65;;;26.10;50.10;;;;;;5135982;27;20118;-72
2023/06/14 10:48:44;;;;;;;6.07;2.65;;;26.00;50.10;;;;;;5117715;27;20031;-72
2023/06/14 10:51:23;;;;;;;3.35;2.35;;;24.00;50.90;;;;;;5135480;27;20039;-72
2023/06/14 10:53:50;;;;;;;4.07;2.20;;;23.70;54.00;;;;;;5135524;27;20039;-72
2023/06/14 10:56:28;;;;;;;2.13;1.90;;;24.10;53.30;;;;;;5135591;27;20096;-72
2023/06/14 10:58:58;;;;;;;2.25;1.70;;;24.70;52.30;;;;;;5135552;27;20095;-72
2023/06/14 11:01:49;;;;;;;2.83;2.40;;;25.50;50.00;;;;;;5135332;27;20495;-72
2023/06/14 11:04:20;;;;;;;4.07;2.35;;;26.30;48.90;;;;;;5092973;27;20042;-72
2023/06/14 11:06:52;;;;;;;3.72;2.40;;;26.00;48.20;;;;;;5135529;27;20055;-72
2023/06/14 11:10:02;;;;;;;2.53;1.73;;;25.60;48.20;;;;;;5116823;27;20381;-72
2023/06/14 11:12:28;;;;;;;3.38;1.90;;;26.50;49.10;;;;;;5135612;27;20114;-72
2023/06/14 11:14:54;;;;;;;3.35;1.85;;;26.80;47.70;;;;;;5135170;27;20031;-72
2023/06/14 11:17:20;;;;;;;4.25;1.92;;;27.50;48.20;;;;;;5135089;27;20031;-72
2023/06/14 11:19:46;;;;;;;4.43;1.92;;;28.00;45.80;;;;;;5134857;27;20047;-73
2023/06/14 11:22:12;;;;;;;2.05;1.70;;;28.40;44.90;;;;;;5135412;27;20110;-73
2023/06/14 11:24:38;;;;;;;4.03;2.20;;;28.00;43.70;;;;;;5135004;27;20117;-72
2023/06/14 11:27:04;;;;;;;3.88;2.15;;;28.20;44.90;;;;;;5116582;27;20074;-73
2023/06/14 11:29:30;;;;;;;2.20;2.00;;;27.70;44.60;;;;;;5116423;27;20121;-73
2023/06/14 11:31:56;;;;;;;4.38;1.85;;;26.80;45.50;;;;;;5134620;27;20438;-73
2023/06/14 11:34:21;;;;;;;5.15;2.30;;;25.80;47.20;;;;;;5116389;27;20039;-73
2023/06/14 11:36:47;;;;;;;3.70;2.00;;;25.40;48.40;;;;;;5134798;27;20449;-73
2023/06/14 11:39:13;;;;;;;7.95;2.35;;;24.80;48.90;;;;;;5134656;27;20030;-73
2023/06/14 11:41:41;;;;;;;7.10;2.85;;;24.50;49.50;;;;;;5134896;27;20051;-73
2023/06/14 11:44:07;;;;;;;7.85;2.15;;;24.30;51.40;;;;;;5133620;27;20035;-73
2023/06/14 11:46:34;;;;;;;5.78;1.95;;;24.40;51.30;;;;;;5134347;27;20472;-73
2023/06/14 11:49:02;;;;;;;3.58;2.08;;;24.60;52.10;;;;;;5134794;27;20062;-73
2023/06/14 11:51:29;;;;;;;;;;;24.50;50.70;;;;;;5135421;27;20023;-70
2023/06/14 11:53:55;;;;;;;3.72;2.20;;;24.20;51.80;;;;;;5134667;27;19904;-73
2023/06/14 11:56:20;;;;;;;4.10;2.10;;;23.90;51.80;;;;;;5116613;27;20383;-73
2023/06/14 11:58:46;;;;;;;6.13;2.22;;;24.00;52.30;;;;;;5116064;27;20388;-73
2023/06/14 12:01:17;;;;;;;4.70;1.73;;;24.60;51.40;;;;;;5116047;28;20039;-72
2023/06/14 12:03:50;;;;;;;15.50;3.60;;;24.60;50.70;;;;;;5134447;27;20049;-72
2023/06/14 12:06:17;;;;;;;8.02;2.58;;;24.40;51.20;;;;;;5134343;28;20027;-72
2023/06/14 12:08:45;;;;;;;3.22;2.00;;;24.50;51.30;;;;;;5115960;28;20050;-72
2023/06/14 12:11:13;;;;;;;5.22;2.15;;;24.20;52.20;;;;;;5134315;28;20035;-72
2023/06/14 12:13:42;;;;;;;4.60;2.10;;;24.00;51.80;;;;;;5115896;28;20035;-74
2023/06/14 12:16:09;;;;;;;5.70;2.45;;;23.90;53.20;;;;;;5116222;28;20085;-72
2023/06/14 12:18:37;;;;;;;6.68;2.22;;;24.00;53.20;;;;;;5114908;28;20035;-72
2023/06/14 12:21:09;;;;;;;9.55;3.28;;;24.20;51.10;;;;;;5134283;28;20047;-72
2023/06/14 12:23:46;;;;;;;2.55;2.13;;;25.20;52.00;;;;;;5134248;28;20027;-72
2023/06/14 12:26:16;;;;;;;2.65;2.40;;;27.10;49.10;;;;;;5134458;28;20353;-73
2023/06/14 12:28:43;;;;;;;3.78;2.20;;;27.30;48.00;;;;;;5133888;28;20495;-73
2023/06/14 12:31:09;;;;;;;5.45;1.92;;;26.80;44.80;;;;;;5116449;28;20035;-73
2023/06/14 12:33:35;;;;;;;3.95;1.80;;;26.70;45.60;;;;;;5115762;28;20598;-73
2023/06/14 12:36:03;;;;;;;5.95;2.00;;;28.00;45.50;;;;;;5132774;28;20043;-76
2023/06/14 12:38:29;;;;;;;3.63;2.15;;;27.60;44.30;;;;;;5110393;28;20027;-73
2023/06/14 12:40:55;;;;;;;8.77;2.38;;;27.00;45.70;;;;;;5113221;28;20050;-74
2023/06/14 12:43:20;;;;;;;5.20;2.22;;;27.80;45.00;;;;;;5095323;28;20473;-74
2023/06/14 12:45:46;;;;;;;9.35;2.83;;;28.30;46.20;;;;;;5113497;28;20034;-72
2023/06/14 12:48:11;;;;;;;2.75;1.73;;;28.20;45.20;;;;;;5113176;28;20179;-75
2023/06/14 12:50:37;;;;;;;3.45;1.60;;;28.80;44.60;;;;;;5119722;28;20132;-73